sensor_id;sensor_type;location;lat;lon;timestamp;temperature;humidity
42099;DHT22;27758;55.900;8.516;2023-09-08T00:02:28;17.30;99.90
42099;DHT22;27758;55.900;8.516;2023-09-08T00:04:53;17.20;99.90
42099;DHT22;27758;55.900;8.516;2023-09-08T00:07:19;17.20;99.90
42099;DHT22;27758;55.900;8.516;2023-09-08T00:09:45;17.20;99.90
42099;DHT22;27758;55.900;8.516;2023-09-08T00:12:11;17.20;99.90
42099;DHT22;27758;55.900;8.516;2023-09-08T00:14:37;17.10;99.90
42099;DHT22;27758;55.900;8.516;2023-09-08T00:17:03;17.10;99.90
42099;DHT22;27758;55.900;8.516;2023-09-08T00:19:29;17.10;99.90
42099;DHT22;27758;55.900;8.516;2023-09-08T00:21:56;17.10;99.90
42099;DHT22;27758;55.900;8.516;2023-09-08T00:24:22;17.10;99.90
42099;DHT22;27758;55.900;8.516;2023-09-08T00:26:47;17.10;99.90
42099;DHT22;27758;55.900;8.516;2023-09-08T00:29:13;17.10;99.90
42099;DHT22;27758;55.900;8.516;2023-09-08T00:31:39;17.10;99.90
42099;DHT22;27758;55.900;8.516;2023-09-08T00:34:05;17.10;99.90
42099;DHT22;27758;55.900;8.516;2023-09-08T00:36:32;17.10;99.90
42099;DHT22;27758;55.900;8.516;2023-09-08T00:38:57;17.00;99.90
42099;DHT22;27758;55.900;8.516;2023-09-08T00:41:23;17.00;99.90
42099;DHT22;27758;55.900;8.516;2023-09-08T00:43:49;17.00;99.90
42099;DHT22;27758;55.900;8.516;2023-09-08T00:46:16;17.00;99.90
42099;DHT22;27758;55.900;8.516;2023-09-08T00:48:42;17.00;99.90
42099;DHT22;27758;55.900;8.516;2023-09-08T00:51:09;17.00;99.90
42099;DHT22;27758;55.900;8.516;2023-09-08T00:53:36;17.00;99.90
42099;DHT22;27758;55.900;8.516;2023-09-08T00:56:02;17.00;99.90
42099;DHT22;27758;55.900;8.516;2023-09-08T00:58:29;17.00;99.90
42099;DHT22;27758;55.900;8.516;2023-09-08T01:00:55;17.00;99.90
42099;DHT22;27758;55.900;8.516;2023-09-08T01:03:24;17.00;99.90
42099;DHT22;27758;55.900;8.516;2023-09-08T01:05:49;17.00;99.90
42099;DHT22;27758;55.900;8.516;2023-09-08T01:08:16;17.00;99.90
42099;DHT22;27758;55.900;8.516;2023-09-08T01:10:42;17.00;99.90
42099;DHT22;27758;55.900;8.516;2023-09-08T01:13:08;16.90;99.90
42099;DHT22;27758;55.900;8.516;2023-09-08T01:15:33;16.80;99.90
42099;DHT22;27758;55.900;8.516;2023-09-08T01:17:59;16.80;99.90
42099;DHT22;27758;55.900;8.516;2023-09-08T01:21:03;16.80;99.90
42099;DHT22;27758;55.900;8.516;2023-09-08T01:23:24;16.70;99.90
42099;DHT22;27758;55.900;8.516;2023-09-08T01:26:08;16.60;99.90
42099;DHT22;27758;55.900;8.516;2023-09-08T01:28:36;16.60;99.90
42099;DHT22;27758;55.900;8.516;2023-09-08T01:31:03;16.60;99.90
42099;DHT22;27758;55.900;8.516;2023-09-08T01:33:30;16.60;99.90
42099;DHT22;27758;55.900;8.516;2023-09-08T01:35:56;16.50;99.90
42099;DHT22;27758;55.900;8.516;2023-09-08T01:38:23;16.50;99.90
42099;DHT22;27758;55.900;8.516;2023-09-08T01:40:49;16.50;99.90
42099;DHT22;27758;55.900;8.516;2023-09-08T01:43:14;16.50;99.90
42099;DHT22;27758;55.900;8.516;2023-09-08T01:45:40;16.50;99.90
42099;DHT22;27758;55.900;8.516;2023-09-08T01:48:06;16.50;99.90
42099;DHT22;27758;55.900;8.516;2023-09-08T01:50:31;16.50;99.90
42099;DHT22;27758;55.900;8.516;2023-09-08T01:52:57;16.40;99.90
42099;DHT22;27758;55.900;8.516;2023-09-08T01:55:23;16.40;99.90
42099;DHT22;27758;55.900;8.516;2023-09-08T01:57:48;16.40;99.90
42099;DHT22;27758;55.900;8.516;2023-09-08T02:00:14;16.40;99.90
42099;DHT22;27758;55.900;8.516;2023-09-08T02:02:40;16.40;99.90
42099;DHT22;27758;55.900;8.516;2023-09-08T02:05:07;16.40;99.90
42099;DHT22;27758;55.900;8.516;2023-09-08T02:07:33;16.40;99.90
42099;DHT22;27758;55.900;8.516;2023-09-08T02:09:59;16.40;99.90
42099;DHT22;27758;55.900;8.516;2023-09-08T02:12:24;16.40;99.90
42099;DHT22;27758;55.900;8.516;2023-09-08T02:14:50;16.40;99.90
42099;DHT22;27758;55.900;8.516;2023-09-08T02:17:17;16.40;99.90
42099;DHT22;27758;55.900;8.516;2023-09-08T02:19:43;16.30;99.90
42099;DHT22;27758;55.900;8.516;2023-09-08T02:22:09;16.30;99.90
42099;DHT22;27758;55.900;8.516;2023-09-08T02:24:35;16.20;99.90
42099;DHT22;27758;55.900;8.516;2023-09-08T02:27:00;16.20;99.90
42099;DHT22;27758;55.900;8.516;2023-09-08T02:29:26;16.20;99.90
42099;DHT22;27758;55.900;8.516;2023-09-08T02:31:52;16.10;99.90
42099;DHT22;27758;55.900;8.516;2023-09-08T02:34:17;16.10;99.90
42099;DHT22;27758;55.900;8.516;2023-09-08T02:36:43;16.10;99.90
42099;DHT22;27758;55.900;8.516;2023-09-08T02:39:13;16.00;99.90
42099;DHT22;27758;55.900;8.516;2023-09-08T02:41:39;16.00;99.90
42099;DHT22;27758;55.900;8.516;2023-09-08T02:44:05;16.00;99.90
42099;DHT22;27758;55.900;8.516;2023-09-08T02:46:33;16.00;99.90
42099;DHT22;27758;55.900;8.516;2023-09-08T02:48:58;16.00;99.90
42099;DHT22;27758;55.900;8.516;2023-09-08T02:51:24;16.00;99.90
42099;DHT22;27758;55.900;8.516;2023-09-08T02:53:50;16.00;99.90
42099;DHT22;27758;55.900;8.516;2023-09-08T02:56:16;16.00;99.90
42099;DHT22;27758;55.900;8.516;2023-09-08T02:58:41;16.00;99.90
42099;DHT22;27758;55.900;8.516;2023-09-08T03:01:14;16.00;99.90
42099;DHT22;27758;55.900;8.516;2023-09-08T03:03:43;15.90;99.90
42099;DHT22;27758;55.900;8.516;2023-09-08T03:06:10;16.00;99.90
42099;DHT22;27758;55.900;8.516;2023-09-08T03:08:36;16.00;99.90
42099;DHT22;27758;55.900;8.516;2023-09-08T03:11:03;16.00;99.90
42099;DHT22;27758;55.900;8.516;2023-09-08T03:13:30;16.00;99.90
42099;DHT22;27758;55.900;8.516;2023-09-08T03:16:03;15.90;99.90
42099;DHT22;27758;55.900;8.516;2023-09-08T03:18:29;15.90;99.90
42099;DHT22;27758;55.900;8.516;2023-09-08T03:20:55;15.90;99.90
42099;DHT22;27758;55.900;8.516;2023-09-08T03:23:20;15.90;99.90
42099;DHT22;27758;55.900;8.516;2023-09-08T03:25:48;15.90;99.90
42099;DHT22;27758;55.900;8.516;2023-09-08T03:28:15;15.90;99.90
42099;DHT22;27758;55.900;8.516;2023-09-08T03:30:40;15.80;99.90
42099;DHT22;27758;55.900;8.516;2023-09-08T03:33:06;15.80;99.90
42099;DHT22;27758;55.900;8.516;2023-09-08T03:35:32;15.90;99.90
42099;DHT22;27758;55.900;8.516;2023-09-08T03:37:57;15.90;99.90
42099;DHT22;27758;55.900;8.516;2023-09-08T03:40:24;15.90;99.90
42099;DHT22;27758;55.900;8.516;2023-09-08T03:42:49;15.90;99.90
42099;DHT22;27758;55.900;8.516;2023-09-08T03:45:15;15.90;99.90
42099;DHT22;27758;55.900;8.516;2023-09-08T03:47:41;15.90;99.90
42099;DHT22;27758;55.900;8.516;2023-09-08T03:50:07;15.90;99.90
42099;DHT22;27758;55.900;8.516;2023-09-08T03:52:33;15.90;99.90
42099;DHT22;27758;55.900;8.516;2023-09-08T03:54:58;15.80;99.90
42099;DHT22;27758;55.900;8.516;2023-09-08T03:57:24;15.80;99.90
42099;DHT22;27758;55.900;8.516;2023-09-08T03:59:50;15.80;99.90
42099;DHT22;27758;55.900;8.516;2023-09-08T04:02:15;15.70;99.90
42099;DHT22;27758;55.900;8.516;2023-09-08T04:04:41;15.80;99.90
42099;DHT22;27758;55.900;8.516;2023-09-08T04:07:06;15.80;99.90
42099;DHT22;27758;55.900;8.516;2023-09-08T04:09:32;15.80;99.90
42099;DHT22;27758;55.900;8.516;2023-09-08T04:11:58;15.70;99.90
42099;DHT22;27758;55.900;8.516;2023-09-08T04:14:23;15.70;99.90
42099;DHT22;27758;55.900;8.516;2023-09-08T04:16:53;15.70;99.90
42099;DHT22;27758;55.900;8.516;2023-09-08T04:19:18;15.70;99.90
42099;DHT22;27758;55.900;8.516;2023-09-08T04:21:44;15.70;99.90
42099;DHT22;27758;55.900;8.516;2023-09-08T04:24:10;15.70;99.90
42099;DHT22;27758;55.900;8.516;2023-09-08T04:26:36;15.70;99.90
42099;DHT22;27758;55.900;8.516;2023-09-08T04:29:02;15.70;99.90
42099;DHT22;27758;55.900;8.516;2023-09-08T04:31:28;15.70;99.90
42099;DHT22;27758;55.900;8.516;2023-09-08T04:33:54;15.70;99.90
42099;DHT22;27758;55.900;8.516;2023-09-08T04:36:20;15.70;99.90
42099;DHT22;27758;55.900;8.516;2023-09-08T04:38:45;15.70;99.90
42099;DHT22;27758;55.900;8.516;2023-09-08T04:41:11;15.70;99.90
42099;DHT22;27758;55.900;8.516;2023-09-08T04:43:37;15.70;99.90
42099;DHT22;27758;55.900;8.516;2023-09-08T04:46:03;15.70;99.90
42099;DHT22;27758;55.900;8.516;2023-09-08T04:48:29;15.70;99.90
42099;DHT22;27758;55.900;8.516;2023-09-08T04:50:56;15.70;99.90
42099;DHT22;27758;55.900;8.516;2023-09-08T04:53:22;15.60;99.90
42099;DHT22;27758;55.900;8.516;2023-09-08T04:55:47;15.70;99.90
42099;DHT22;27758;55.900;8.516;2023-09-08T04:58:13;15.70;99.90
42099;DHT22;27758;55.900;8.516;2023-09-08T05:00:39;15.70;99.90
42099;DHT22;27758;55.900;8.516;2023-09-08T05:03:07;15.70;99.90
42099;DHT22;27758;55.900;8.516;2023-09-08T05:05:33;15.70;99.90
42099;DHT22;27758;55.900;8.516;2023-09-08T05:07:58;15.70;99.90
42099;DHT22;27758;55.900;8.516;2023-09-08T05:10:24;15.70;99.90
42099;DHT22;27758;55.900;8.516;2023-09-08T05:12:51;15.70;99.90
42099;DHT22;27758;55.900;8.516;2023-09-08T05:15:16;15.80;99.90
42099;DHT22;27758;55.900;8.516;2023-09-08T05:17:44;15.80;99.90
42099;DHT22;27758;55.900;8.516;2023-09-08T05:20:10;15.80;99.90
42099;DHT22;27758;55.900;8.516;2023-09-08T05:22:35;15.80;99.90
42099;DHT22;27758;55.900;8.516;2023-09-08T05:25:02;15.90;99.90
42099;DHT22;27758;55.900;8.516;2023-09-08T05:27:28;15.90;99.90
42099;DHT22;27758;55.900;8.516;2023-09-08T05:29:54;16.00;99.90
42099;DHT22;27758;55.900;8.516;2023-09-08T05:32:19;16.10;99.90
42099;DHT22;27758;55.900;8.516;2023-09-08T05:34:45;16.00;99.90
42099;DHT22;27758;55.900;8.516;2023-09-08T05:37:11;16.10;99.90
42099;DHT22;27758;55.900;8.516;2023-09-08T05:39:36;16.10;99.90
42099;DHT22;27758;55.900;8.516;2023-09-08T05:42:02;16.20;99.90
42099;DHT22;27758;55.900;8.516;2023-09-08T05:44:28;16.30;99.90
42099;DHT22;27758;55.900;8.516;2023-09-08T05:46:54;16.40;99.90
42099;DHT22;27758;55.900;8.516;2023-09-08T05:49:19;16.40;99.90
42099;DHT22;27758;55.900;8.516;2023-09-08T05:51:45;16.50;99.90
42099;DHT22;27758;55.900;8.516;2023-09-08T05:54:11;16.50;99.90
42099;DHT22;27758;55.900;8.516;2023-09-08T05:56:37;16.60;99.90
42099;DHT22;27758;55.900;8.516;2023-09-08T05:59:03;16.60;99.90
42099;DHT22;27758;55.900;8.516;2023-09-08T06:01:30;16.70;99.90
42099;DHT22;27758;55.900;8.516;2023-09-08T06:03:56;16.80;99.90
42099;DHT22;27758;55.900;8.516;2023-09-08T06:06:22;16.90;99.90
42099;DHT22;27758;55.900;8.516;2023-09-08T06:08:47;17.00;99.90
42099;DHT22;27758;55.900;8.516;2023-09-08T06:11:14;17.00;99.90
42099;DHT22;27758;55.900;8.516;2023-09-08T06:13:39;17.10;99.90
42099;DHT22;27758;55.900;8.516;2023-09-08T06:16:05;17.20;99.90
42099;DHT22;27758;55.900;8.516;2023-09-08T06:18:31;17.30;99.90
42099;DHT22;27758;55.900;8.516;2023-09-08T06:20:57;17.40;99.90
42099;DHT22;27758;55.900;8.516;2023-09-08T06:23:23;17.50;99.90
42099;DHT22;27758;55.900;8.516;2023-09-08T06:25:49;17.50;99.90
42099;DHT22;27758;55.900;8.516;2023-09-08T06:28:15;17.70;99.90
42099;DHT22;27758;55.900;8.516;2023-09-08T06:30:41;17.80;99.90
42099;DHT22;27758;55.900;8.516;2023-09-08T06:33:10;17.90;99.90
42099;DHT22;27758;55.900;8.516;2023-09-08T06:35:35;17.90;99.90
42099;DHT22;27758;55.900;8.516;2023-09-08T06:38:01;18.10;99.90
42099;DHT22;27758;55.900;8.516;2023-09-08T06:40:29;18.20;99.90
42099;DHT22;27758;55.900;8.516;2023-09-08T06:42:55;18.30;99.90
42099;DHT22;27758;55.900;8.516;2023-09-08T06:45:22;18.50;99.90
42099;DHT22;27758;55.900;8.516;2023-09-08T06:47:48;18.60;99.90
42099;DHT22;27758;55.900;8.516;2023-09-08T06:50:15;18.70;99.90
42099;DHT22;27758;55.900;8.516;2023-09-08T06:52:41;18.90;99.90
42099;DHT22;27758;55.900;8.516;2023-09-08T06:55:07;18.90;99.90
42099;DHT22;27758;55.900;8.516;2023-09-08T06:57:33;18.90;99.90
42099;DHT22;27758;55.900;8.516;2023-09-08T06:59:59;19.10;99.90
42099;DHT22;27758;55.900;8.516;2023-09-08T07:02:24;19.20;99.90
42099;DHT22;27758;55.900;8.516;2023-09-08T07:04:50;19.40;99.90
42099;DHT22;27758;55.900;8.516;2023-09-08T07:07:16;19.50;99.90
42099;DHT22;27758;55.900;8.516;2023-09-08T07:09:43;19.70;99.90
42099;DHT22;27758;55.900;8.516;2023-09-08T07:12:09;19.90;99.90
42099;DHT22;27758;55.900;8.516;2023-09-08T07:14:34;20.00;99.90
42099;DHT22;27758;55.900;8.516;2023-09-08T07:17:00;20.30;99.90
42099;DHT22;27758;55.900;8.516;2023-09-08T07:19:26;20.40;99.90
42099;DHT22;27758;55.900;8.516;2023-09-08T07:21:52;20.70;99.90
42099;DHT22;27758;55.900;8.516;2023-09-08T07:24:18;20.90;99.90
42099;DHT22;27758;55.900;8.516;2023-09-08T07:26:44;21.10;99.90
42099;DHT22;27758;55.900;8.516;2023-09-08T07:29:09;21.50;99.90
42099;DHT22;27758;55.900;8.516;2023-09-08T07:31:36;21.80;99.90
42099;DHT22;27758;55.900;8.516;2023-09-08T07:34:01;22.00;99.90
42099;DHT22;27758;55.900;8.516;2023-09-08T07:36:27;22.10;99.90
42099;DHT22;27758;55.900;8.516;2023-09-08T07:38:53;22.30;99.90
42099;DHT22;27758;55.900;8.516;2023-09-08T07:41:18;22.60;99.90
42099;DHT22;27758;55.900;8.516;2023-09-08T07:43:44;22.60;99.90
42099;DHT22;27758;55.900;8.516;2023-09-08T07:46:11;22.60;99.90
42099;DHT22;27758;55.900;8.516;2023-09-08T07:48:37;22.60;99.90
42099;DHT22;27758;55.900;8.516;2023-09-08T07:51:02;22.80;99.90
42099;DHT22;27758;55.900;8.516;2023-09-08T07:53:28;23.10;99.90
42099;DHT22;27758;55.900;8.516;2023-09-08T07:55:54;23.20;99.90
42099;DHT22;27758;55.900;8.516;2023-09-08T07:58:21;23.40;99.90
42099;DHT22;27758;55.900;8.516;2023-09-08T08:00:46;23.60;99.90
42099;DHT22;27758;55.900;8.516;2023-09-08T08:03:12;23.90;99.90
42099;DHT22;27758;55.900;8.516;2023-09-08T08:05:38;24.10;99.90
42099;DHT22;27758;55.900;8.516;2023-09-08T08:08:04;24.10;99.90
42099;DHT22;27758;55.900;8.516;2023-09-08T08:10:29;24.10;99.90
42099;DHT22;27758;55.900;8.516;2023-09-08T08:12:55;24.20;99.90
42099;DHT22;27758;55.900;8.516;2023-09-08T08:15:22;24.40;99.90
42099;DHT22;27758;55.900;8.516;2023-09-08T08:17:48;24.50;99.90
42099;DHT22;27758;55.900;8.516;2023-09-08T08:20:14;24.60;99.90
42099;DHT22;27758;55.900;8.516;2023-09-08T08:22:44;24.80;99.90
42099;DHT22;27758;55.900;8.516;2023-09-08T08:25:10;24.70;99.90
42099;DHT22;27758;55.900;8.516;2023-09-08T08:27:39;24.70;99.90
42099;DHT22;27758;55.900;8.516;2023-09-08T08:30:05;24.70;99.90
42099;DHT22;27758;55.900;8.516;2023-09-08T08:32:31;24.80;99.90
42099;DHT22;27758;55.900;8.516;2023-09-08T08:34:57;24.90;99.90
42099;DHT22;27758;55.900;8.516;2023-09-08T08:37:22;24.90;99.90
42099;DHT22;27758;55.900;8.516;2023-09-08T08:39:48;25.10;99.90
42099;DHT22;27758;55.900;8.516;2023-09-08T08:42:15;25.00;99.90
42099;DHT22;27758;55.900;8.516;2023-09-08T08:44:41;25.40;99.90
42099;DHT22;27758;55.900;8.516;2023-09-08T08:47:10;25.80;99.90
42099;DHT22;27758;55.900;8.516;2023-09-08T08:49:36;25.90;99.90
42099;DHT22;27758;55.900;8.516;2023-09-08T08:52:03;26.20;99.90
42099;DHT22;27758;55.900;8.516;2023-09-08T08:54:38;26.20;99.90
42099;DHT22;27758;55.900;8.516;2023-09-08T08:57:04;26.20;99.90
42099;DHT22;27758;55.900;8.516;2023-09-08T08:59:31;26.20;99.90
42099;DHT22;27758;55.900;8.516;2023-09-08T09:01:58;26.20;99.90
42099;DHT22;27758;55.900;8.516;2023-09-08T09:04:25;26.40;99.90
42099;DHT22;27758;55.900;8.516;2023-09-08T09:06:53;26.80;99.90
42099;DHT22;27758;55.900;8.516;2023-09-08T09:09:19;26.80;99.90
42099;DHT22;27758;55.900;8.516;2023-09-08T09:11:45;26.90;99.90
42099;DHT22;27758;55.900;8.516;2023-09-08T09:14:10;27.00;99.90
42099;DHT22;27758;55.900;8.516;2023-09-08T09:16:41;27.00;99.90
42099;DHT22;27758;55.900;8.516;2023-09-08T09:19:06;27.20;99.90
42099;DHT22;27758;55.900;8.516;2023-09-08T09:21:43;27.40;99.90
42099;DHT22;27758;55.900;8.516;2023-09-08T09:24:16;27.20;99.90
42099;DHT22;27758;55.900;8.516;2023-09-08T09:26:42;27.20;99.90
42099;DHT22;27758;55.900;8.516;2023-09-08T09:29:12;27.10;99.90
42099;DHT22;27758;55.900;8.516;2023-09-08T09:32:07;27.20;99.90
42099;DHT22;27758;55.900;8.516;2023-09-08T09:34:35;27.30;99.90
42099;DHT22;27758;55.900;8.516;2023-09-08T09:37:01;27.60;99.90
42099;DHT22;27758;55.900;8.516;2023-09-08T09:39:30;27.60;99.90
42099;DHT22;27758;55.900;8.516;2023-09-08T09:41:57;27.70;99.90
42099;DHT22;27758;55.900;8.516;2023-09-08T09:44:24;27.70;99.90
42099;DHT22;27758;55.900;8.516;2023-09-08T09:46:53;27.30;99.90
42099;DHT22;27758;55.900;8.516;2023-09-08T09:49:19;27.40;99.90
42099;DHT22;27758;55.900;8.516;2023-09-08T09:51:47;27.40;99.90
42099;DHT22;27758;55.900;8.516;2023-09-08T09:54:14;27.30;99.90
42099;DHT22;27758;55.900;8.516;2023-09-08T09:56:41;27.40;99.90
42099;DHT22;27758;55.900;8.516;2023-09-08T09:59:11;27.50;99.90
42099;DHT22;27758;55.900;8.516;2023-09-08T10:01:39;27.60;99.90
42099;DHT22;27758;55.900;8.516;2023-09-08T10:04:05;27.80;99.90
42099;DHT22;27758;55.900;8.516;2023-09-08T10:06:33;27.60;99.90
42099;DHT22;27758;55.900;8.516;2023-09-08T10:09:04;27.60;99.90
42099;DHT22;27758;55.900;8.516;2023-09-08T10:11:41;27.70;99.90
42099;DHT22;27758;55.900;8.516;2023-09-08T10:14:07;27.50;99.90
42099;DHT22;27758;55.900;8.516;2023-09-08T10:16:36;27.50;99.90
42099;DHT22;27758;55.900;8.516;2023-09-08T10:19:07;27.70;99.90
42099;DHT22;27758;55.900;8.516;2023-09-08T10:21:39;27.80;99.90
42099;DHT22;27758;55.900;8.516;2023-09-08T10:24:15;27.80;99.90
42099;DHT22;27758;55.900;8.516;2023-09-08T10:26:47;27.80;99.90
42099;DHT22;27758;55.900;8.516;2023-09-08T10:29:15;27.90;99.90
42099;DHT22;27758;55.900;8.516;2023-09-08T10:31:42;27.80;99.90
42099;DHT22;27758;55.900;8.516;2023-09-08T10:34:09;27.90;99.90
42099;DHT22;27758;55.900;8.516;2023-09-08T10:36:35;28.00;99.90
42099;DHT22;27758;55.900;8.516;2023-09-08T10:50:16;28.70;99.90
42099;DHT22;27758;55.900;8.516;2023-09-08T10:52:42;29.00;99.90
42099;DHT22;27758;55.900;8.516;2023-09-08T10:55:08;29.10;99.90
42099;DHT22;27758;55.900;8.516;2023-09-08T10:57:34;29.00;99.90
42099;DHT22;27758;55.900;8.516;2023-09-08T11:00:06;29.00;99.90
42099;DHT22;27758;55.900;8.516;2023-09-08T11:02:56;29.10;99.90
42099;DHT22;27758;55.900;8.516;2023-09-08T11:05:21;29.00;99.90
42099;DHT22;27758;55.900;8.516;2023-09-08T11:07:49;29.00;99.90
42099;DHT22;27758;55.900;8.516;2023-09-08T11:10:15;29.20;99.90
42099;DHT22;27758;55.900;8.516;2023-09-08T11:12:41;29.50;99.90
42099;DHT22;27758;55.900;8.516;2023-09-08T11:15:08;29.40;99.90
42099;DHT22;27758;55.900;8.516;2023-09-08T11:17:35;29.10;99.90
42099;DHT22;27758;55.900;8.516;2023-09-08T11:20:05;29.30;99.90
42099;DHT22;27758;55.900;8.516;2023-09-08T11:22:35;29.40;99.90
42099;DHT22;27758;55.900;8.516;2023-09-08T11:25:01;29.40;99.90
42099;DHT22;27758;55.900;8.516;2023-09-08T11:27:31;29.10;99.90
42099;DHT22;27758;55.900;8.516;2023-09-08T11:29:57;28.60;99.90
42099;DHT22;27758;55.900;8.516;2023-09-08T11:32:23;28.40;99.90
42099;DHT22;27758;55.900;8.516;2023-09-08T11:34:50;28.30;99.90
42099;DHT22;27758;55.900;8.516;2023-09-08T11:37:17;28.30;99.90
42099;DHT22;27758;55.900;8.516;2023-09-08T11:39:45;28.30;99.90
42099;DHT22;27758;55.900;8.516;2023-09-08T11:42:13;28.30;99.90
42099;DHT22;27758;55.900;8.516;2023-09-08T11:44:39;28.50;99.90
42099;DHT22;27758;55.900;8.516;2023-09-08T11:47:09;28.60;99.90
42099;DHT22;27758;55.900;8.516;2023-09-08T11:49:36;29.00;99.90
42099;DHT22;27758;55.900;8.516;2023-09-08T11:52:03;28.90;99.90
42099;DHT22;27758;55.900;8.516;2023-09-08T11:54:30;28.80;99.90
42099;DHT22;27758;55.900;8.516;2023-09-08T11:57:06;28.60;99.90
42099;DHT22;27758;55.900;8.516;2023-09-08T11:59:34;28.90;99.90
42099;DHT22;27758;55.900;8.516;2023-09-08T12:02:00;29.30;99.90
42099;DHT22;27758;55.900;8.516;2023-09-08T12:04:26;29.10;99.90
42099;DHT22;27758;55.900;8.516;2023-09-08T12:06:54;29.00;99.90
42099;DHT22;27758;55.900;8.516;2023-09-08T12:09:23;29.00;99.90
42099;DHT22;27758;55.900;8.516;2023-09-08T12:11:50;29.00;99.90
42099;DHT22;27758;55.900;8.516;2023-09-08T12:14:16;29.20;99.90
42099;DHT22;27758;55.900;8.516;2023-09-08T12:16:42;29.30;99.90
42099;DHT22;27758;55.900;8.516;2023-09-08T12:19:08;29.40;99.90
42099;DHT22;27758;55.900;8.516;2023-09-08T12:21:59;29.40;99.90
42099;DHT22;27758;55.900;8.516;2023-09-08T12:27:14;29.10;99.90
42099;DHT22;27758;55.900;8.516;2023-09-08T12:29:40;29.30;99.90
42099;DHT22;27758;55.900;8.516;2023-09-08T12:32:05;29.10;99.90
42099;DHT22;27758;55.900;8.516;2023-09-08T12:34:32;29.20;99.90
42099;DHT22;27758;55.900;8.516;2023-09-08T12:36:57;29.30;99.90
42099;DHT22;27758;55.900;8.516;2023-09-08T12:39:23;29.00;99.90
42099;DHT22;27758;55.900;8.516;2023-09-08T12:41:49;28.70;99.90
42099;DHT22;27758;55.900;8.516;2023-09-08T12:44:14;28.60;99.90
42099;DHT22;27758;55.900;8.516;2023-09-08T12:46:40;28.30;99.90
42099;DHT22;27758;55.900;8.516;2023-09-08T12:49:06;28.20;99.90
42099;DHT22;27758;55.900;8.516;2023-09-08T12:51:31;28.00;99.90
42099;DHT22;27758;55.900;8.516;2023-09-08T12:53:57;27.90;99.90
42099;DHT22;27758;55.900;8.516;2023-09-08T12:56:23;27.90;99.90
42099;DHT22;27758;55.900;8.516;2023-09-08T12:58:48;28.00;99.90
42099;DHT22;27758;55.900;8.516;2023-09-08T13:01:14;28.00;99.90
42099;DHT22;27758;55.900;8.516;2023-09-08T13:03:39;28.10;99.90
42099;DHT22;27758;55.900;8.516;2023-09-08T13:06:05;28.00;99.90
42099;DHT22;27758;55.900;8.516;2023-09-08T13:08:31;28.10;99.90
42099;DHT22;27758;55.900;8.516;2023-09-08T13:10:57;27.90;99.90
42099;DHT22;27758;55.900;8.516;2023-09-08T13:13:22;27.80;99.90
42099;DHT22;27758;55.900;8.516;2023-09-08T13:15:48;27.80;99.90
42099;DHT22;27758;55.900;8.516;2023-09-08T13:18:15;27.80;99.90
42099;DHT22;27758;55.900;8.516;2023-09-08T13:20:40;27.70;99.90
42099;DHT22;27758;55.900;8.516;2023-09-08T13:23:06;27.60;99.90
42099;DHT22;27758;55.900;8.516;2023-09-08T13:25:32;27.60;99.90
42099;DHT22;27758;55.900;8.516;2023-09-08T13:27:57;27.50;99.90
42099;DHT22;27758;55.900;8.516;2023-09-08T13:30:23;27.50;99.90
42099;DHT22;27758;55.900;8.516;2023-09-08T13:32:52;27.50;99.90
42099;DHT22;27758;55.900;8.516;2023-09-08T13:35:17;27.40;99.90
42099;DHT22;27758;55.900;8.516;2023-09-08T13:37:43;27.50;99.90
42099;DHT22;27758;55.900;8.516;2023-09-08T13:40:09;27.50;99.90
42099;DHT22;27758;55.900;8.516;2023-09-08T13:42:35;27.70;99.90
42099;DHT22;27758;55.900;8.516;2023-09-08T13:45:01;27.90;99.90
42099;DHT22;27758;55.900;8.516;2023-09-08T13:47:26;28.10;99.90
42099;DHT22;27758;55.900;8.516;2023-09-08T13:49:52;28.30;99.90
42099;DHT22;27758;55.900;8.516;2023-09-08T13:52:18;28.30;99.90
42099;DHT22;27758;55.900;8.516;2023-09-08T13:54:44;28.30;99.90
42099;DHT22;27758;55.900;8.516;2023-09-08T13:57:10;28.40;99.90
42099;DHT22;27758;55.900;8.516;2023-09-08T13:59:35;28.30;99.90
42099;DHT22;27758;55.900;8.516;2023-09-08T14:02:01;28.30;99.90
42099;DHT22;27758;55.900;8.516;2023-09-08T14:04:29;28.30;99.90
42099;DHT22;27758;55.900;8.516;2023-09-08T14:06:54;28.20;99.90
42099;DHT22;27758;55.900;8.516;2023-09-08T14:09:20;28.30;99.90
42099;DHT22;27758;55.900;8.516;2023-09-08T14:11:46;28.20;99.90
42099;DHT22;27758;55.900;8.516;2023-09-08T14:14:11;28.30;99.90
42099;DHT22;27758;55.900;8.516;2023-09-08T14:16:37;28.30;99.90
42099;DHT22;27758;55.900;8.516;2023-09-08T14:19:03;28.40;99.90
42099;DHT22;27758;55.900;8.516;2023-09-08T14:21:29;28.40;99.90
42099;DHT22;27758;55.900;8.516;2023-09-08T14:23:55;28.30;99.90
42099;DHT22;27758;55.900;8.516;2023-09-08T14:26:20;28.20;99.90
42099;DHT22;27758;55.900;8.516;2023-09-08T14:28:46;28.20;99.90
42099;DHT22;27758;55.900;8.516;2023-09-08T14:31:12;28.10;99.90
42099;DHT22;27758;55.900;8.516;2023-09-08T14:33:38;28.10;99.90
42099;DHT22;27758;55.900;8.516;2023-09-08T14:36:04;28.20;99.90
42099;DHT22;27758;55.900;8.516;2023-09-08T14:38:29;28.20;99.90
42099;DHT22;27758;55.900;8.516;2023-09-08T14:41:02;28.10;99.90
42099;DHT22;27758;55.900;8.516;2023-09-08T14:43:28;28.10;99.90
42099;DHT22;27758;55.900;8.516;2023-09-08T14:45:55;28.00;99.90
42099;DHT22;27758;55.900;8.516;2023-09-08T14:48:23;27.80;99.90
42099;DHT22;27758;55.900;8.516;2023-09-08T14:50:48;27.60;99.90
42099;DHT22;27758;55.900;8.516;2023-09-08T14:53:14;27.50;99.90
42099;DHT22;27758;55.900;8.516;2023-09-08T14:55:40;27.40;99.90
42099;DHT22;27758;55.900;8.516;2023-09-08T14:58:06;27.30;99.90
42099;DHT22;27758;55.900;8.516;2023-09-08T15:00:32;27.30;99.90
42099;DHT22;27758;55.900;8.516;2023-09-08T15:02:57;27.20;99.90
42099;DHT22;27758;55.900;8.516;2023-09-08T15:05:23;27.20;99.90
42099;DHT22;27758;55.900;8.516;2023-09-08T15:07:49;27.10;99.90
42099;DHT22;27758;55.900;8.516;2023-09-08T15:10:15;27.10;99.90
42099;DHT22;27758;55.900;8.516;2023-09-08T15:12:41;27.10;99.90
42099;DHT22;27758;55.900;8.516;2023-09-08T15:15:07;27.20;99.90
42099;DHT22;27758;55.900;8.516;2023-09-08T15:17:33;27.20;99.90
42099;DHT22;27758;55.900;8.516;2023-09-08T15:19:58;27.30;99.90
42099;DHT22;27758;55.900;8.516;2023-09-08T15:22:25;27.30;99.90
42099;DHT22;27758;55.900;8.516;2023-09-08T15:24:51;27.30;99.90
42099;DHT22;27758;55.900;8.516;2023-09-08T15:27:17;27.40;99.90
42099;DHT22;27758;55.900;8.516;2023-09-08T15:29:42;27.40;99.90
42099;DHT22;27758;55.900;8.516;2023-09-08T15:32:08;27.40;99.90
42099;DHT22;27758;55.900;8.516;2023-09-08T15:34:34;27.40;99.90
42099;DHT22;27758;55.900;8.516;2023-09-08T15:37:00;27.50;99.90
42099;DHT22;27758;55.900;8.516;2023-09-08T15:39:26;27.50;99.90
42099;DHT22;27758;55.900;8.516;2023-09-08T15:41:52;27.50;99.90